Impacts TAF Board
For situational awareness. Not to be used for flight planning purposes.
IDs:

KIAH - Houston/Bush Intl, TX, US

Issued at 1853 UTC 22 Sep 2018
Updated at 1906 UTC 22 Sep 2018
Potential Impact None Slight Moderate High
Time<<23/08Z 23/09Z 23/10Z 23/11Z 23/12Z 23/13Z 23/14Z 23/15Z 23/16Z 23/17Z 23/18Z 23/19Z 23/20Z>>
Type PRVL PRVL PRVL PRVL PRVL PRVL PRVL PRVL PRVL PRVL PRVL PRVL PRVL
VIS >6 >6 >6 >6 >6 >6 >6 >6 >6 >6 >6 >6 >6
CIG 25 25 25 25 25 25 25 35 35 35 35 35 35
Cover OVC OVC OVC OVC OVC OVC OVC BKN BKN BKN BKN BKN BKN
FltCat MVFR MVFR MVFR MVFR MVFR MVFR MVFR VFR VFR VFR VFR VFR VFR
WX VCSH VCSH VCSH VCSH VCSH VCSH VCSH -- -- -- -- -- --
WDir 340 340 340 340 340 340 340 310 310 310 310 310 310
WSpd 6 6 6 6 6 6 6 7 7 7 7 7 7
WGst -- -- -- -- -- -- -- -- -- -- -- -- --
Raw TAF
KIAH 221853Z 2219/2324 19007KT P6SM VCTS SCT025CB BKN100
  TEMPO 2219/2221 VRB10G20KT 3SM TSRA BKN020CB
  FM230100 32010KT P6SM VCSH SCT009 BKN015
  FM230400 34006KT P6SM VCSH BKN025 OVC120
  FM231500 31007KT P6SM BKN035


METAR Board
Radar Display
Forecast Discussion
For situational awareness. Not to be used for flight planning purposes.